createdAt,value
2023-04-27T00:00:57.003Z,6.54
2023-04-27T00:03:27.691Z,6.54
2023-04-27T00:05:57.883Z,5.93
2023-04-27T00:08:30.201Z,5.99
2023-04-27T00:11:00.216Z,6.12
2023-04-27T00:13:30.096Z,5.82
2023-04-27T00:16:03.448Z,5.75
2023-04-27T00:18:33.390Z,5.66
2023-04-27T00:21:03.380Z,5.95
2023-04-27T00:23:35.774Z,6.28
2023-04-27T00:26:05.479Z,6.41
2023-04-27T00:28:35.236Z,6.20
2023-04-27T00:31:05.041Z,6.14
2023-04-27T00:33:34.770Z,5.61
2023-04-27T00:36:05.287Z,5.14
2023-04-27T00:38:37.690Z,5.03
2023-04-27T00:41:10.664Z,5.15
2023-04-27T00:43:45.420Z,5.93
2023-04-27T00:46:16.487Z,6.05
2023-04-27T00:48:47.300Z,6.01
2023-04-27T00:51:17.329Z,6.26
2023-04-27T00:53:49.786Z,5.90
2023-04-27T00:56:19.700Z,5.98
2023-04-27T00:58:49.401Z,5.77
2023-04-27T01:01:20.867Z,6.29
2023-04-27T01:03:50.844Z,6.27
2023-04-27T01:06:20.683Z,6.15
2023-04-27T01:08:52.931Z,6.13
2023-04-27T01:11:24.146Z,6.03
2023-04-27T01:13:54.673Z,6.35
2023-04-27T01:16:24.414Z,6.32
2023-04-27T01:18:54.175Z,6.13
2023-04-27T01:21:27.355Z,6.00
2023-04-27T01:23:59.781Z,5.62
2023-04-27T01:26:29.524Z,5.76
2023-04-27T01:28:59.355Z,5.78
2023-04-27T01:31:31.383Z,6.12
2023-04-27T01:34:01.123Z,5.89
2023-04-27T01:36:31.993Z,5.95
2023-04-27T01:39:04.619Z,5.88
2023-04-27T01:41:34.306Z,5.97
2023-04-27T01:44:03.978Z,5.82
2023-04-27T01:46:33.757Z,5.84
2023-04-27T01:49:03.608Z,5.78
2023-04-27T01:51:33.732Z,5.78
2023-04-27T01:54:06.520Z,5.71
2023-04-27T01:56:37.126Z,5.64
2023-04-27T01:59:06.881Z,5.50
2023-04-27T02:01:36.863Z,5.50
2023-04-27T02:04:06.983Z,5.69
2023-04-27T02:06:36.856Z,5.63
2023-04-27T02:09:09.487Z,5.62
2023-04-27T02:11:42.780Z,5.54
2023-04-27T02:14:12.730Z,5.76
2023-04-27T02:16:42.861Z,5.90
2023-04-27T02:19:13.030Z,5.86
2023-04-27T02:21:42.904Z,6.25
2023-04-27T02:24:15.232Z,6.22
2023-04-27T02:26:45.388Z,6.03
2023-04-27T02:29:15.478Z,6.11
2023-04-27T02:31:45.878Z,6.17
2023-04-27T02:34:16.208Z,6.16
2023-04-27T02:36:45.935Z,6.01
2023-04-27T02:39:18.247Z,5.91
2023-04-27T02:41:48.099Z,5.90
2023-04-27T02:44:18.502Z,6.05
2023-04-27T02:46:48.299Z,6.05
2023-04-27T02:49:18.811Z,6.10
2023-04-27T02:51:48.481Z,5.87
2023-04-27T02:54:20.853Z,5.79
2023-04-27T02:56:50.573Z,5.75
2023-04-27T02:59:20.276Z,5.69
2023-04-27T03:01:49.969Z,5.74
2023-04-27T03:04:20.391Z,5.97
2023-04-27T03:06:51.758Z,6.00
2023-04-27T03:09:24.338Z,5.86
2023-04-27T03:11:54.000Z,5.85
2023-04-27T03:14:23.677Z,6.05
2023-04-27T03:16:56.333Z,6.16
2023-04-27T03:19:26.219Z,5.91
2023-04-27T03:21:55.956Z,6.00
2023-04-27T03:24:28.302Z,5.68
2023-04-27T03:26:58.548Z,5.26
2023-04-27T03:29:28.288Z,5.72
2023-04-27T03:31:58.142Z,5.88
2023-04-27T03:34:27.990Z,6.02
2023-04-27T03:36:57.931Z,6.13
2023-04-27T03:39:30.432Z,6.17
2023-04-27T03:42:00.419Z,6.17
2023-04-27T03:44:31.063Z,6.25
2023-04-27T03:47:01.852Z,6.23
2023-04-27T03:49:32.078Z,6.24
2023-04-27T03:52:02.112Z,6.14
2023-04-27T03:54:34.569Z,6.06
2023-04-27T03:57:04.592Z,6.06
2023-04-27T03:59:34.310Z,6.19
2023-04-27T04:02:04.460Z,6.05
2023-04-27T04:04:34.712Z,6.19
2023-04-27T04:07:06.069Z,6.16
2023-04-27T04:09:38.597Z,6.37
2023-04-27T04:12:09.387Z,6.04
2023-04-27T04:14:39.226Z,6.29
2023-04-27T04:17:08.913Z,6.26
2023-04-27T04:19:38.594Z,6.13
2023-04-27T04:22:08.334Z,5.97
2023-04-27T04:24:41.148Z,6.30
2023-04-27T04:27:10.957Z,6.26
2023-04-27T04:29:40.814Z,6.28
2023-04-27T04:32:12.454Z,6.22
2023-04-27T04:34:42.556Z,6.38
2023-04-27T04:37:12.328Z,6.70
2023-04-27T04:39:44.608Z,6.37
2023-04-27T04:42:14.339Z,6.47
2023-04-27T04:44:44.924Z,6.44
2023-04-27T04:47:14.682Z,6.47
2023-04-27T04:49:44.358Z,6.35
2023-04-27T04:52:14.368Z,6.40
2023-04-27T04:54:46.629Z,6.14
2023-04-27T04:57:16.388Z,6.13
2023-04-27T04:59:46.549Z,6.40
2023-04-27T05:02:16.243Z,6.38
2023-04-27T05:04:46.014Z,6.52
2023-04-27T05:07:20.904Z,6.59
2023-04-27T05:09:55.992Z,6.79
2023-04-27T05:12:25.887Z,7.01
2023-04-27T05:14:56.049Z,6.93
2023-04-27T05:17:25.774Z,6.15
2023-04-27T05:19:55.446Z,6.31
2023-04-27T05:22:25.155Z,6.69
2023-04-27T05:24:57.687Z,6.74
2023-04-27T05:27:27.364Z,6.84
2023-04-27T05:29:57.039Z,7.01
2023-04-27T05:32:26.752Z,6.98
2023-04-27T05:34:56.544Z,7.18
2023-04-27T05:37:26.187Z,7.12
2023-04-27T05:39:58.398Z,6.87
2023-04-27T05:42:28.088Z,7.57
2023-04-27T05:44:57.925Z,7.63
2023-04-27T05:47:27.629Z,7.86
2023-04-27T05:49:58.027Z,7.69
2023-04-27T05:52:31.311Z,7.59
2023-04-27T05:55:04.247Z,7.23
2023-04-27T05:57:34.058Z,7.26
2023-04-27T06:00:07.432Z,7.30
2023-04-27T06:02:42.207Z,7.65
2023-04-27T06:05:12.787Z,7.40
2023-04-27T06:07:44.005Z,7.55
2023-04-27T06:10:16.604Z,7.99
2023-04-27T06:12:46.725Z,8.15
2023-04-27T06:15:17.230Z,7.83
2023-04-27T06:17:46.996Z,7.82
2023-04-27T06:20:16.707Z,7.06
2023-04-27T06:22:46.993Z,7.34
2023-04-27T06:25:19.229Z,7.20
2023-04-27T06:27:48.907Z,7.65
2023-04-27T06:30:19.325Z,7.48
2023-04-27T06:32:49.011Z,7.76
2023-04-27T06:35:19.476Z,8.34
2023-04-27T06:37:49.272Z,9.42
2023-04-27T06:40:21.585Z,10.92
2023-04-27T06:42:51.285Z,9.32
2023-04-27T06:45:21.154Z,8.82
2023-04-27T06:47:50.949Z,7.83
2023-04-27T06:50:20.804Z,7.97
2023-04-27T06:52:50.464Z,7.93
2023-04-27T06:55:22.814Z,7.71
2023-04-27T06:57:52.529Z,9.13
2023-04-27T07:00:22.914Z,9.86
2023-04-27T07:02:52.786Z,10.22
2023-04-27T07:05:23.092Z,9.42
2023-04-27T07:07:52.894Z,9.53
2023-04-27T07:10:25.357Z,8.86
2023-04-27T07:12:55.015Z,8.78
2023-04-27T07:15:24.956Z,8.40
2023-04-27T07:17:54.932Z,8.89
2023-04-27T07:20:24.726Z,8.25
2023-04-27T07:22:54.397Z,8.56
2023-04-27T07:25:26.695Z,8.86
2023-04-27T07:27:57.110Z,9.96
2023-04-27T07:30:26.853Z,9.55
2023-04-27T07:32:56.860Z,10.05
2023-04-27T07:35:26.597Z,11.70
2023-04-27T07:37:56.790Z,10.12
2023-04-27T07:40:29.064Z,9.10
2023-04-27T07:42:58.943Z,8.75
2023-04-27T07:45:32.490Z,8.89
2023-04-27T07:48:04.632Z,10.29
2023-04-27T07:50:34.885Z,10.76
2023-04-27T07:53:04.607Z,11.79
2023-04-27T07:55:36.952Z,10.42
2023-04-27T07:58:07.460Z,11.45
2023-04-27T08:00:37.560Z,12.20
2023-04-27T08:03:08.287Z,11.48
2023-04-27T08:05:38.568Z,11.73
2023-04-27T08:08:08.878Z,10.75
2023-04-27T08:10:43.113Z,10.56
2023-04-27T08:13:12.820Z,11.11
2023-04-27T08:15:42.481Z,10.80
2023-04-27T08:18:12.232Z,10.30
2023-04-27T08:20:41.942Z,9.51
2023-04-27T08:23:11.694Z,9.49
2023-04-27T08:25:44.027Z,9.85
2023-04-27T08:28:13.723Z,10.36
2023-04-27T08:30:44.893Z,10.42
2023-04-27T08:33:14.626Z,10.45
2023-04-27T08:35:44.376Z,10.29
2023-04-27T08:38:14.162Z,9.61
2023-04-27T08:40:49.339Z,9.51
2023-04-27T08:43:19.203Z,9.81
2023-04-27T08:45:53.137Z,10.08
2023-04-27T08:48:23.109Z,9.51
2023-04-27T08:50:54.121Z,9.52
2023-04-27T08:53:24.324Z,9.88
2023-04-27T08:55:57.894Z,10.10
2023-04-27T08:58:39.559Z,9.31
2023-04-27T09:01:10.029Z,10.27
2023-04-27T09:03:41.343Z,10.36
2023-04-27T09:06:11.656Z,9.32
2023-04-27T09:08:46.007Z,9.48
2023-04-27T09:11:19.307Z,9.48
2023-04-27T09:13:49.020Z,9.56
2023-04-27T09:16:18.752Z,10.58
2023-04-27T09:18:48.625Z,10.04
2023-04-27T09:21:26.115Z,9.85
2023-04-27T09:23:56.438Z,10.01
2023-04-27T09:26:31.981Z,9.97
2023-04-27T09:29:01.649Z,10.15
2023-04-27T09:31:34.941Z,10.53
2023-04-27T09:34:05.682Z,10.76
2023-04-27T09:36:35.539Z,10.50
2023-04-27T09:39:07.261Z,10.57
2023-04-27T09:41:42.418Z,10.34
2023-04-27T09:44:12.103Z,10.11
2023-04-27T09:46:44.038Z,9.72
2023-04-27T09:49:15.746Z,10.22
2023-04-27T09:51:45.525Z,10.23
2023-04-27T09:54:17.314Z,10.46
2023-04-27T09:56:58.380Z,9.97
2023-04-27T09:59:44.145Z,10.01
2023-04-27T10:02:25.125Z,10.33
2023-04-27T10:05:16.236Z,10.88
2023-04-27T10:07:48.884Z,10.63
2023-04-27T10:10:20.627Z,10.97
2023-04-27T10:13:04.103Z,10.98
2023-04-27T10:15:33.799Z,10.63
2023-04-27T10:18:07.780Z,10.69
2023-04-27T10:20:40.770Z,10.87
2023-04-27T10:23:10.686Z,10.79
2023-04-27T10:25:41.735Z,10.95
2023-04-27T10:28:20.768Z,11.01
2023-04-27T10:30:52.106Z,10.99
2023-04-27T10:33:25.091Z,11.42
2023-04-27T10:36:00.528Z,11.12
2023-04-27T10:38:33.214Z,11.34
2023-04-27T10:41:05.724Z,11.04
2023-04-27T10:43:39.192Z,10.74
2023-04-27T10:46:14.400Z,11.18
2023-04-27T10:48:45.180Z,11.39
2023-04-27T10:51:18.613Z,11.34
2023-04-27T10:53:48.369Z,11.00
2023-04-27T10:56:18.148Z,11.34
2023-04-27T10:58:50.457Z,10.80
2023-04-27T11:01:27.169Z,11.63
2023-04-27T11:04:00.891Z,11.38
2023-04-27T11:06:32.317Z,11.36
2023-04-27T11:09:02.995Z,11.57
2023-04-27T11:11:32.787Z,11.45
2023-04-27T11:14:05.138Z,11.35
2023-04-27T11:16:35.152Z,11.20
2023-04-27T11:19:08.271Z,11.79
2023-04-27T11:21:37.990Z,11.97
2023-04-27T11:24:08.902Z,12.05
2023-04-27T11:26:38.922Z,11.63
2023-04-27T11:29:14.497Z,12.06
2023-04-27T11:31:47.813Z,11.77
2023-04-27T11:34:19.681Z,11.76
2023-04-27T11:37:10.748Z,11.94
2023-04-27T11:39:48.769Z,12.27
2023-04-27T11:42:20.811Z,12.13
2023-04-27T11:45:01.416Z,11.59
2023-04-27T11:47:32.869Z,11.20
2023-04-27T11:50:05.781Z,11.52
2023-04-27T11:52:36.768Z,11.77
2023-04-27T11:55:09.189Z,11.93
2023-04-27T11:57:39.458Z,12.31
2023-04-27T12:00:14.748Z,12.11
2023-04-27T12:02:46.571Z,11.25
2023-04-27T12:05:17.460Z,10.51
2023-04-27T12:07:47.263Z,11.51
2023-04-27T12:10:17.221Z,11.77
2023-04-27T12:12:47.087Z,11.45
2023-04-27T12:15:19.507Z,12.35
2023-04-27T12:17:49.302Z,11.99
2023-04-27T12:20:19.299Z,12.53
2023-04-27T12:22:49.055Z,12.23
2023-04-27T12:25:19.886Z,12.09
2023-04-27T12:27:50.327Z,12.56
2023-04-27T12:30:24.077Z,12.95
2023-04-27T12:32:53.900Z,12.91
2023-04-27T12:35:24.030Z,12.69
2023-04-27T12:37:53.917Z,12.01
2023-04-27T12:40:23.668Z,13.01
2023-04-27T12:42:53.356Z,12.64
2023-04-27T12:45:25.663Z,12.43
2023-04-27T12:48:03.529Z,12.18
2023-04-27T12:50:34.511Z,12.44
2023-04-27T12:53:05.056Z,13.09
2023-04-27T12:55:34.897Z,12.59
2023-04-27T12:58:05.145Z,12.27
2023-04-27T13:00:37.440Z,12.57
2023-04-27T13:03:07.902Z,12.34
2023-04-27T13:05:38.431Z,12.93
2023-04-27T13:08:08.470Z,12.91
2023-04-27T13:10:38.203Z,11.52
2023-04-27T13:13:08.005Z,12.47
2023-04-27T13:15:40.386Z,11.52
2023-04-27T13:18:10.528Z,12.99
2023-04-27T13:20:40.303Z,12.31
2023-04-27T13:23:10.091Z,12.39
2023-04-27T13:25:39.813Z,12.70
2023-04-27T13:28:09.496Z,12.88
2023-04-27T13:30:41.749Z,12.95
2023-04-27T13:33:22.555Z,13.02
2023-04-27T13:35:53.819Z,12.98
2023-04-27T13:38:23.674Z,13.08
2023-04-27T13:40:53.387Z,13.27
2023-04-27T13:43:23.120Z,12.69
2023-04-27T13:45:56.473Z,12.51
2023-04-27T13:48:27.396Z,11.85
2023-04-27T13:50:58.085Z,12.76
2023-04-27T13:53:28.353Z,12.61
2023-04-27T13:55:59.062Z,12.58
2023-04-27T13:58:30.896Z,11.94
2023-04-27T14:01:03.338Z,12.28
2023-04-27T14:03:34.066Z,12.38
2023-04-27T14:06:04.311Z,12.53
2023-04-27T14:08:34.411Z,12.59
2023-04-27T14:11:04.168Z,12.18
2023-04-27T14:13:33.874Z,12.19
2023-04-27T14:16:06.769Z,11.78
2023-04-27T14:18:36.607Z,11.38
2023-04-27T14:21:07.349Z,10.69
2023-04-27T14:23:38.171Z,12.42
2023-04-27T14:26:09.308Z,12.06
2023-04-27T14:28:39.306Z,11.23
2023-04-27T14:31:11.600Z,11.02
2023-04-27T14:33:41.331Z,12.18
2023-04-27T14:36:11.694Z,12.16
2023-04-27T14:38:41.509Z,12.16
2023-04-27T14:41:11.231Z,11.75
2023-04-27T14:43:40.940Z,11.78
2023-04-27T14:48:50.247Z,11.74
2023-04-27T14:51:20.454Z,12.07
2023-04-27T14:53:50.179Z,12.73
2023-04-27T14:56:20.078Z,12.86
2023-04-27T14:58:49.818Z,12.46
2023-04-27T15:01:22.209Z,12.51
2023-04-27T15:03:54.491Z,12.73
2023-04-27T15:06:24.686Z,11.44
2023-04-27T15:08:54.373Z,11.96
2023-04-27T15:11:24.745Z,12.14
2023-04-27T15:13:54.461Z,12.53
2023-04-27T15:16:27.511Z,12.84
2023-04-27T15:18:57.225Z,11.94
2023-04-27T15:21:27.122Z,11.48
2023-04-27T15:23:56.785Z,11.91
2023-04-27T15:26:26.569Z,11.62
2023-04-27T15:40:10.565Z,13.19
2023-04-27T15:42:40.489Z,13.11
2023-04-27T15:45:11.955Z,13.07
2023-04-27T15:47:41.789Z,13.00
2023-04-27T15:50:11.862Z,12.24
2023-04-27T15:52:41.640Z,11.82
2023-04-27T15:55:14.423Z,12.60
2023-04-27T15:57:44.177Z,12.13
2023-04-27T16:00:16.547Z,11.57
2023-04-27T16:02:46.650Z,12.19
2023-04-27T16:05:17.541Z,12.27
2023-04-27T16:07:48.133Z,11.76
2023-04-27T16:10:20.467Z,11.41
2023-04-27T16:12:50.480Z,12.20
2023-04-27T16:15:20.802Z,12.15
2023-04-27T16:17:50.651Z,11.73
2023-04-27T16:20:20.314Z,11.88
2023-04-27T16:22:50.036Z,11.88
2023-04-27T16:25:22.471Z,12.22
2023-04-27T16:27:52.393Z,12.30
2023-04-27T16:30:22.609Z,12.51
2023-04-27T16:32:52.584Z,12.38
2023-04-27T16:35:22.485Z,12.37
2023-04-27T16:37:53.959Z,11.67
2023-04-27T16:40:26.265Z,12.62
2023-04-27T16:42:56.226Z,11.96
2023-04-27T16:45:25.927Z,12.36
2023-04-27T16:47:55.906Z,12.17
2023-04-27T16:50:25.742Z,12.22
2023-04-27T16:52:55.561Z,12.57
2023-04-27T16:55:28.660Z,11.70
2023-04-27T16:57:58.719Z,11.39
2023-04-27T17:00:28.662Z,11.30
2023-04-27T17:02:58.688Z,11.91
2023-04-27T17:05:28.725Z,11.68
2023-04-27T17:07:58.845Z,11.52
2023-04-27T17:10:32.477Z,11.27
2023-04-27T17:13:02.284Z,11.40
2023-04-27T17:15:32.394Z,10.91
2023-04-27T17:18:05.170Z,11.40
2023-04-27T17:20:35.190Z,11.28
2023-04-27T17:23:05.279Z,10.77
2023-04-27T17:25:37.522Z,10.77
2023-04-27T17:28:07.390Z,10.64
2023-04-27T17:30:37.586Z,11.38
2023-04-27T17:33:07.384Z,11.39
2023-04-27T17:35:37.110Z,11.13
2023-04-27T17:38:06.866Z,10.89
2023-04-27T17:40:39.115Z,10.78
2023-04-27T17:43:08.846Z,10.48
2023-04-27T17:45:38.858Z,10.79
2023-04-27T17:48:09.484Z,11.33
2023-04-27T17:50:41.257Z,11.51
2023-04-27T17:53:10.977Z,11.29
2023-04-27T17:55:45.589Z,10.93
2023-04-27T17:58:15.710Z,11.00
2023-04-27T18:00:45.714Z,10.94
2023-04-27T18:03:15.610Z,10.38
2023-04-27T18:05:45.693Z,10.12
2023-04-27T18:08:15.584Z,10.62
2023-04-27T18:10:47.837Z,11.06
2023-04-27T18:13:17.510Z,11.17
2023-04-27T18:15:47.203Z,10.57
2023-04-27T18:18:23.210Z,9.84
2023-04-27T18:20:56.406Z,9.77
2023-04-27T18:23:26.393Z,9.33
2023-04-27T18:26:01.072Z,9.50
2023-04-27T18:28:30.798Z,9.45
2023-04-27T18:31:00.901Z,9.32
2023-04-27T18:33:30.766Z,9.42
2023-04-27T18:36:00.907Z,9.62
2023-04-27T18:38:31.307Z,9.60
2023-04-27T18:41:03.587Z,9.27
2023-04-27T18:43:33.333Z,9.50
2023-04-27T18:46:05.050Z,9.72
2023-04-27T18:48:34.890Z,9.30
2023-04-27T18:51:04.659Z,9.44
2023-04-27T18:53:34.446Z,9.54
2023-04-27T18:56:08.847Z,9.67
2023-04-27T18:58:39.184Z,9.57
2023-04-27T19:01:09.580Z,9.49
2023-04-27T19:03:39.493Z,9.61
2023-04-27T19:06:09.390Z,10.43
2023-04-27T19:08:39.116Z,10.64
2023-04-27T19:11:11.421Z,10.55
2023-04-27T19:13:45.334Z,9.99
2023-04-27T19:16:15.554Z,10.32
2023-04-27T19:18:45.601Z,9.85
2023-04-27T19:21:15.337Z,8.90
2023-04-27T19:23:45.322Z,8.68
2023-04-27T19:26:17.789Z,9.16
2023-04-27T19:28:48.023Z,9.78
2023-04-27T19:31:17.896Z,8.78
2023-04-27T19:36:24.830Z,9.03
2023-04-27T19:38:55.317Z,8.59
2023-04-27T19:41:28.519Z,8.33
2023-04-27T19:43:58.484Z,8.91
2023-04-27T19:46:28.247Z,9.82
2023-04-27T19:48:58.096Z,9.24
2023-04-27T19:51:27.957Z,8.89
2023-04-27T19:53:57.612Z,8.05
2023-04-27T19:56:29.881Z,8.13
2023-04-27T19:58:59.600Z,7.96
2023-04-27T20:01:29.384Z,8.40
2023-04-27T20:03:59.350Z,8.64
2023-04-27T20:06:29.371Z,8.41
2023-04-27T20:08:59.122Z,8.30
2023-04-27T20:11:31.510Z,8.21
2023-04-27T20:14:01.347Z,8.12
2023-04-27T20:16:31.481Z,7.74
2023-04-27T20:19:01.237Z,7.79
2023-04-27T20:21:31.049Z,8.49
2023-04-27T20:24:00.719Z,9.24
2023-04-27T20:26:32.945Z,8.61
2023-04-27T20:29:02.598Z,7.31
2023-04-27T20:31:32.487Z,7.15
2023-04-27T20:34:02.306Z,7.45
2023-04-27T20:36:32.093Z,8.43
2023-04-27T20:39:05.626Z,7.45
2023-04-27T20:41:38.668Z,8.13
2023-04-27T20:44:08.462Z,8.57
2023-04-27T20:46:38.324Z,8.81
2023-04-27T20:49:08.692Z,8.59
2023-04-27T20:51:38.507Z,7.78
2023-04-27T20:54:08.717Z,7.88
2023-04-27T20:56:41.130Z,8.48
2023-04-27T20:59:10.779Z,7.76
2023-04-27T21:01:40.464Z,8.20
2023-04-27T21:04:10.270Z,8.33
2023-04-27T21:06:42.868Z,8.74
2023-04-27T21:09:12.634Z,8.61
2023-04-27T21:11:44.938Z,8.82
2023-04-27T21:14:14.746Z,8.55
2023-04-27T21:16:44.736Z,8.54
2023-04-27T21:19:16.712Z,8.08
2023-04-27T21:21:46.463Z,8.53
2023-04-27T21:24:16.164Z,7.54
2023-04-27T21:26:48.438Z,7.93
2023-04-27T21:29:18.099Z,7.35
2023-04-27T21:31:47.787Z,6.97
2023-04-27T21:34:17.546Z,7.23
2023-04-27T21:36:47.471Z,7.06
2023-04-27T21:39:17.155Z,6.90
2023-04-27T21:41:49.528Z,6.80
2023-04-27T21:44:19.184Z,6.26
2023-04-27T21:46:49.022Z,6.30
2023-04-27T21:49:18.826Z,6.12
2023-04-27T21:51:48.640Z,6.00
2023-04-27T21:54:18.318Z,5.91
2023-04-27T21:56:50.590Z,5.98
2023-04-27T21:59:20.718Z,6.59
2023-04-27T22:01:50.656Z,6.78
2023-04-27T22:04:20.684Z,6.67
2023-04-27T22:06:50.821Z,7.15
2023-04-27T22:09:20.502Z,5.76
2023-04-27T22:11:52.757Z,6.47
2023-04-27T22:14:22.488Z,6.06
2023-04-27T22:16:52.203Z,6.00
2023-04-27T22:19:22.055Z,6.74
2023-04-27T22:21:51.716Z,6.15
2023-04-27T22:24:21.364Z,6.25
2023-04-27T22:26:53.677Z,6.06
2023-04-27T22:29:23.339Z,6.88
2023-04-27T22:31:54.020Z,5.71
2023-04-27T22:34:24.293Z,5.58
2023-04-27T22:36:54.113Z,5.68
2023-04-27T22:39:24.290Z,5.64
2023-04-27T22:41:56.543Z,5.91
2023-04-27T22:44:26.216Z,5.44
2023-04-27T22:46:56.397Z,5.56
2023-04-27T22:49:26.151Z,5.39
2023-04-27T22:51:57.806Z,5.38
2023-04-27T22:54:27.534Z,6.27
2023-04-27T22:57:00.524Z,6.30
2023-04-27T22:59:30.333Z,5.63
2023-04-27T23:02:00.046Z,5.89
2023-04-27T23:04:30.167Z,5.85
2023-04-27T23:06:59.949Z,5.58
2023-04-27T23:09:29.839Z,5.65
2023-04-27T23:12:02.086Z,6.01
2023-04-27T23:14:31.751Z,6.15
2023-04-27T23:17:02.021Z,6.56
2023-04-27T23:19:32.126Z,6.67
2023-04-27T23:22:03.448Z,6.23
2023-04-27T23:24:33.079Z,6.22
2023-04-27T23:27:05.319Z,5.48
2023-04-27T23:29:35.064Z,5.97
2023-04-27T23:32:05.518Z,6.57
2023-04-27T23:34:35.177Z,5.94
2023-04-27T23:37:04.873Z,5.99
2023-04-27T23:39:34.520Z,5.87
2023-04-27T23:42:07.061Z,5.59
2023-04-27T23:44:36.820Z,5.03
2023-04-27T23:47:06.521Z,5.27
2023-04-27T23:49:36.262Z,5.06
2023-04-27T23:52:06.167Z,5.35
2023-04-27T23:54:36.096Z,5.29
2023-04-27T23:57:08.317Z,5.24
2023-04-27T23:59:39.179Z,5.39
